Key Field
KMEI : now visible

Airfield :











YOU CAN JOIN US ON...

 
LOGIN :

Register | Disclaimer

   EN    FR    IT 

 









Legend :    VFR   Marginal VFR   IFR   Intensive IFR   Very Intensive IFR
Visi :
Ceiling :
>= 8 km
>= 3000ft
5 to 8 km
1000 to 3000 ft
1500m to 5 km
500 to 1000 ft
800 to 1500m
200 to 500 ft
< 800m
< 200 ft
Symbols :   Thunderstorms  Fog  Heavy snow  Heavy precipitations  Wind > 20 kt






- Airport Elevation : 297 ft
- IATA code : MEI


KMEI - Key Field

CURRENT METAR :
  • 301458Z 01011KT 10SM OVC018 11/06 A3025 RMK AO2 SLP241 T01110061 51016 $

EXPIRED METARs :
  • 301358Z 01009G17KT 10SM OVC014 10/06 A3024 RMK AO2 SLP240 T01000061 $
  • 301258Z 36014G22KT 10SM OVC016 10/06 A3022 RMK AO2 SLP231 T01000056 $

TAF KMEI
Valid from the 30 at 12:00 until the 31 at 12:00 UTC


301121Z 3012/3112 01012KT P6SM BKN016 OVC025
FM301600 36009KT P6SM SCT035
FM310000 01003KT P6SM SKC
KZME FIR / North America



MET'MAP, your aeronautical weather chart ! - Copyright ORBIFLY December 2007 - Disclaimer

ORBIFLY MET'MAP TEAM :

Programming & Development : Alexandra Zaïnal
Concept & original design : Baudouin d'Aumeries
Assistance for programming : Marc-Olivier Méhu
Technical & hardware support : Manuel Goepfert

Contact : metmap@orbifly.com




SOURCES & CREDITS :

   NOAA       Earth
Advisory